Flight Briefing for CPX83

Departure Arrival
Auckland International Airport (NZAA)
Click to view FAA NOTAMS
Daniel K Inouye International Airport (PHNL)
Click to view FAA NOTAMS
Departure Time Arrival Time
N/A N/A
Aircraft Distance
MD-11SF 3832nm
Departure METAR Arrival METAR
NZAA 180530Z AUTO 22012KT 9999 NCD 22/14 Q1014 NOSIG PHNL 180453Z 01008KT 10SM FEW020 FEW038 SCT080 21/17 A2995 RMK AO2 SLP141 VCSH NE SHRA DSNT NW T02110167
Suggested Route
TARIB G347 UBRAX OVLAD CUFFY A579 CROBY A579 CHEEM A579 CARRP OPACA4


View recent IFR Routes data
Notes



Charts and Procedures

Charts for NZAA
No chart available
Charts for PHNL
No chart available

Ventusky Weather